Wetterdaten für den Flughafen Lübeck Blankensee


ADDS - METARS form results Aviation Digital Data Service (ADDS) Output produced by METARs form (1951 UTC 17 February 2020)
found at http://www.aviationweather.gov/metar/data/
 
EDHL 171850Z 23012KT 9999 BKN037 07/02 Q1009
TAF EDHL 171700Z 1718/1721 23013KT 9999 SCT025 PROB30 TEMPO 1718/1721 23015G25KT

Nord: Hamburg, Lübeck
Ost: Schwerin, Rostock
Süd: Hannover
West: Bremen, Nordhloz

 

Copyright © 2016 Flugschule Hohensee